Time;durP1;ratioP1;P1;durP2;ratioP2;P2;SDS_P1;SDS_P2;PMS_P1;PMS_P2;Temp;Humidity;BMP_temperature;BMP_pressure;BME280_temperature;BME280_humidity;BME280_pressure;Samples;Min_cycle;Max_cycle;Signal;HPM_P1;HPM_P2
2023/06/14 00:00:15;;;;;;;3.30;1.60;;;16.80;90.60;;;;;;4984955;28;20054;-55
2023/06/14 00:02:41;;;;;;;7.90;1.85;;;16.80;90.70;;;;;;4985314;28;20117;-55
2023/06/14 00:05:07;;;;;;;3.75;2.08;;;16.80;90.70;;;;;;4985412;28;20438;-54
2023/06/14 00:07:38;;;;;;;3.60;1.80;;;16.70;90.80;;;;;;4986176;28;20133;-53
2023/06/14 00:10:04;;;;;;;3.10;1.80;;;16.80;91.10;;;;;;4967878;28;20115;-58
2023/06/14 00:12:31;;;;;;;3.28;1.50;;;16.70;91.10;;;;;;4985488;28;20296;-56
2023/06/14 00:14:57;;;;;;;5.45;1.77;;;16.70;91.20;;;;;;4984974;28;20089;-57
2023/06/14 00:17:23;;;;;;;5.63;1.85;;;16.70;91.20;;;;;;4951845;28;20460;-58
2023/06/14 00:19:49;;;;;;;7.10;1.92;;;16.60;91.20;;;;;;4967612;28;20054;-58
2023/06/14 00:22:15;;;;;;;6.10;1.80;;;16.60;91.20;;;;;;4985738;28;20038;-55
2023/06/14 00:24:40;;;;;;;5.35;1.67;;;16.60;91.40;;;;;;4985282;28;20055;-57
2023/06/14 00:27:07;;;;;;;8.13;1.90;;;16.60;91.50;;;;;;4985140;28;20050;-57
2023/06/14 00:29:32;;;;;;;4.72;2.10;;;16.50;91.50;;;;;;4985215;28;20042;-56
2023/06/14 00:31:58;;;;;;;5.13;2.00;;;16.40;91.60;;;;;;4985179;28;20261;-55
2023/06/14 00:34:23;;;;;;;6.53;2.20;;;16.40;91.90;;;;;;4985314;28;20046;-58
2023/06/14 00:36:49;;;;;;;5.68;1.67;;;16.40;92.00;;;;;;4984702;28;20418;-52
2023/06/14 00:39:15;;;;;;;4.95;1.98;;;16.40;92.20;;;;;;4985143;28;20062;-59
2023/06/14 00:41:40;;;;;;;4.32;1.80;;;16.20;92.30;;;;;;4985200;28;20046;-57
2023/06/14 00:44:06;;;;;;;7.10;2.08;;;16.30;92.30;;;;;;4983908;28;20353;-56
2023/06/14 00:46:31;;;;;;;2.80;1.70;;;16.20;92.30;;;;;;4984992;28;20035;-55
2023/06/14 00:48:59;;;;;;;4.40;1.98;;;16.20;92.50;;;;;;4984124;28;20437;-58
2023/06/14 00:51:24;;;;;;;2.97;1.60;;;16.20;92.70;;;;;;4985060;28;20574;-52
2023/06/14 00:53:51;;;;;;;5.53;1.73;;;16.20;92.60;;;;;;4984474;28;20039;-56
2023/06/14 00:56:20;;;;;;;6.43;1.80;;;16.20;92.90;;;;;;4984573;28;20309;-54
2023/06/14 00:58:46;;;;;;;4.20;1.80;;;16.10;93.00;;;;;;4984383;28;20053;-58
2023/06/14 01:01:12;;;;;;;3.47;1.65;;;16.10;93.10;;;;;;4966910;28;20564;-58
2023/06/14 01:03:39;;;;;;;3.55;2.00;;;16.10;93.20;;;;;;4984843;28;20046;-58
2023/06/14 01:06:26;;;;;;;5.72;1.75;;;16.00;93.30;;;;;;5059174;23;20069;-58
2023/06/14 01:09:06;;;;;;;4.88;1.95;;;15.90;94.00;;;;;;4986798;28;20041;-54
2023/06/14 01:11:37;;;;;;;4.10;1.85;;;16.00;93.90;;;;;;4986916;28;20396;-55
2023/06/14 01:14:03;;;;;;;5.45;2.30;;;15.70;94.00;;;;;;4967836;28;20105;-58
2023/06/14 01:16:31;;;;;;;5.10;1.90;;;15.60;94.10;;;;;;4987201;28;20046;-51
2023/06/14 01:18:57;;;;;;;5.72;1.80;;;15.50;94.20;;;;;;4987438;28;20042;-58
2023/06/14 01:21:24;;;;;;;3.63;2.03;;;15.50;94.20;;;;;;4985951;28;20065;-57
2023/06/14 01:23:54;;;;;;;4.88;2.10;;;15.50;94.50;;;;;;4970315;28;20101;-58
2023/06/14 01:26:21;;;;;;;4.85;2.28;;;15.40;94.70;;;;;;4986910;28;20418;-57
2023/06/14 01:28:48;;;;;;;3.47;1.85;;;15.30;94.90;;;;;;4967763;28;20054;-55
2023/06/14 01:31:21;;;;;;;3.90;2.00;;;15.30;95.00;;;;;;4969469;28;20827;-55
2023/06/14 01:33:49;;;;;;;4.53;1.88;;;15.30;95.30;;;;;;4986941;28;20045;-55
2023/06/14 01:36:16;;;;;;;5.78;2.00;;;15.30;95.70;;;;;;4986157;28;20457;-58
2023/06/14 01:38:43;;;;;;;5.32;2.00;;;15.20;95.50;;;;;;4986486;28;20050;-55
2023/06/14 01:41:09;;;;;;;6.38;1.85;;;15.10;95.90;;;;;;4986867;28;20057;-55
2023/06/14 01:43:35;;;;;;;5.15;2.00;;;15.10;96.00;;;;;;4985331;28;20050;-51
2023/06/14 01:46:02;;;;;;;5.93;2.40;;;15.10;96.40;;;;;;4985549;28;20485;-50
2023/06/14 01:48:28;;;;;;;4.13;2.10;;;15.00;96.40;;;;;;4986218;28;20536;-53
2023/06/14 01:50:54;;;;;;;5.43;2.08;;;14.90;96.70;;;;;;4969426;28;20073;-55
2023/06/14 01:53:20;;;;;;;4.85;2.00;;;14.90;97.10;;;;;;4985984;28;20081;-52
2023/06/14 01:55:48;;;;;;;6.10;1.92;;;15.30;97.40;;;;;;4986510;28;20526;-54
2023/06/14 01:58:15;;;;;;;4.25;2.20;;;14.80;97.60;;;;;;4985727;28;20077;-55
2023/06/14 02:00:43;;;;;;;6.68;1.92;;;14.70;97.90;;;;;;4985516;28;20062;-58
2023/06/14 02:03:08;;;;;;;5.43;2.28;;;14.60;98.00;;;;;;4986261;28;20497;-58
2023/06/14 02:05:34;;;;;;;7.65;2.35;;;14.60;98.20;;;;;;4985496;28;20146;-55
2023/06/14 02:08:00;;;;;;;4.45;1.85;;;14.60;98.30;;;;;;4985575;28;20709;-58
2023/06/14 02:10:26;;;;;;;4.85;2.30;;;14.50;98.50;;;;;;4985542;28;20088;-58
2023/06/14 02:12:51;;;;;;;3.05;2.05;;;14.50;98.70;;;;;;4985470;28;20050;-58
2023/06/14 02:15:19;;;;;;;4.97;2.30;;;14.50;98.80;;;;;;4985697;28;20046;-54
2023/06/14 02:17:49;;;;;;;3.38;2.17;;;14.40;99.00;;;;;;4986119;28;20130;-52
2023/06/14 02:20:15;;;;;;;3.65;2.40;;;14.40;99.20;;;;;;4985644;28;20053;-58
2023/06/14 02:22:41;;;;;;;4.32;2.42;;;14.30;99.60;;;;;;4986663;28;20129;-58
2023/06/14 02:25:07;;;;;;;9.57;2.70;;;14.30;99.80;;;;;;4985118;28;20122;-52
2023/06/14 02:27:33;;;;;;;6.40;2.60;;;14.20;99.90;;;;;;4968425;28;20382;-58
2023/06/14 02:29:59;;;;;;;4.07;2.40;;;14.10;99.90;;;;;;4985012;28;20049;-57
2023/06/14 02:32:27;;;;;;;5.07;2.40;;;14.10;99.90;;;;;;4984674;28;20048;-58
2023/06/14 02:34:53;;;;;;;5.68;2.67;;;14.10;99.90;;;;;;4968424;28;20061;-54
2023/06/14 02:37:19;;;;;;;8.48;2.45;;;14.00;99.90;;;;;;4985840;28;20441;-54
2023/06/14 02:39:44;;;;;;;4.47;2.38;;;14.00;99.90;;;;;;4986082;28;20042;-53
2023/06/14 02:42:10;;;;;;;7.53;2.50;;;14.10;99.90;;;;;;4985823;28;20034;-57
2023/06/14 02:44:36;;;;;;;4.53;2.42;;;14.00;99.90;;;;;;4984854;28;20069;-58
2023/06/14 02:47:02;;;;;;;4.82;2.47;;;14.10;99.90;;;;;;4984858;28;20042;-57
2023/06/14 02:49:28;;;;;;;5.60;2.63;;;14.00;99.90;;;;;;4985272;28;20058;-55
2023/06/14 02:51:53;;;;;;;6.43;2.78;;;14.10;99.90;;;;;;4985086;28;20042;-56
2023/06/14 02:54:19;;;;;;;3.38;2.35;;;14.10;99.90;;;;;;4985645;28;20042;-56
2023/06/14 02:56:44;;;;;;;4.63;2.30;;;14.10;99.90;;;;;;4985782;28;20501;-53
2023/06/14 02:59:10;;;;;;;5.35;2.60;;;14.00;99.90;;;;;;4984838;28;20142;-62
2023/06/14 03:01:40;;;;;;;8.77;2.80;;;14.10;99.90;;;;;;4985963;28;20034;-57
2023/06/14 03:04:07;;;;;;;4.53;2.63;;;14.10;99.90;;;;;;4985284;28;20042;-54
2023/06/14 03:06:33;;;;;;;6.60;2.90;;;14.20;99.90;;;;;;4982751;28;20124;-54
2023/06/14 03:09:04;;;;;;;4.55;2.78;;;14.20;99.90;;;;;;4984391;28;20069;-52
2023/06/14 03:11:30;;;;;;;5.45;3.17;;;14.20;99.90;;;;;;4984047;28;20638;-57
2023/06/14 03:13:56;;;;;;;7.55;2.95;;;14.20;99.90;;;;;;4984092;28;20046;-57
2023/06/14 03:16:23;;;;;;;6.18;3.08;;;14.20;99.90;;;;;;4984887;28;20101;-58
2023/06/14 03:18:51;;;;;;;5.90;3.05;;;14.30;99.90;;;;;;4984947;28;20061;-56
2023/06/14 03:21:17;;;;;;;7.18;3.38;;;14.30;99.90;;;;;;4984486;28;20061;-52
2023/06/14 03:23:43;;;;;;;9.02;3.25;;;14.30;99.90;;;;;;4966976;28;20081;-57
2023/06/14 03:26:09;;;;;;;9.05;3.15;;;14.30;99.90;;;;;;4984924;28;20473;-58
2023/06/14 03:28:35;;;;;;;6.68;3.10;;;14.70;99.90;;;;;;4983998;28;20096;-49
2023/06/14 03:31:01;;;;;;;5.10;3.22;;;14.30;99.90;;;;;;4984744;28;20046;-58
2023/06/14 03:33:27;;;;;;;8.02;2.80;;;14.20;99.90;;;;;;4984792;28;20114;-58
2023/06/14 03:35:53;;;;;;;5.10;2.85;;;14.20;99.90;;;;;;4985630;28;20494;-58
2023/06/14 03:38:18;;;;;;;7.57;3.40;;;14.20;99.90;;;;;;4984231;28;20076;-58
2023/06/14 03:40:44;;;;;;;5.07;3.35;;;14.30;99.90;;;;;;4985974;28;20408;-59
2023/06/14 03:43:10;;;;;;;6.88;2.97;;;14.20;99.90;;;;;;4984474;28;20046;-57
2023/06/14 03:45:35;;;;;;;6.65;2.90;;;14.20;99.90;;;;;;4984649;28;20552;-56
2023/06/14 03:48:01;;;;;;;5.60;3.50;;;14.20;99.90;;;;;;4984212;28;20039;-58
2023/06/14 03:50:27;;;;;;;7.65;3.60;;;14.30;99.90;;;;;;4984380;28;20061;-54
2023/06/14 03:52:53;;;;;;;6.68;3.38;;;14.30;99.90;;;;;;4985311;28;20050;-58
2023/06/14 03:55:18;;;;;;;7.15;3.08;;;14.60;99.90;;;;;;4984229;28;20066;-50
2023/06/14 03:57:44;;;;;;;5.85;3.15;;;14.40;99.90;;;;;;4985077;28;20393;-58
2023/06/14 04:00:11;;;;;;;5.07;3.08;;;14.50;99.90;;;;;;4951529;28;20107;-58
2023/06/14 04:02:37;;;;;;;7.53;3.40;;;14.50;99.90;;;;;;4984575;28;20039;-58
2023/06/14 04:05:03;;;;;;;4.53;2.90;;;14.50;99.90;;;;;;4966556;28;20058;-58
2023/06/14 04:07:29;;;;;;;7.97;3.40;;;14.50;99.90;;;;;;4985105;28;20049;-58
2023/06/14 04:09:55;;;;;;;7.68;3.28;;;14.50;99.90;;;;;;4985105;28;20447;-59
2023/06/14 04:12:21;;;;;;;5.55;3.15;;;14.70;99.90;;;;;;4984778;28;20035;-57
2023/06/14 04:14:46;;;;;;;6.38;3.42;;;15.00;99.90;;;;;;4984260;28;20154;-59
2023/06/14 04:17:12;;;;;;;5.05;3.10;;;15.20;99.90;;;;;;4984563;28;20051;-57
2023/06/14 04:19:37;;;;;;;5.65;2.75;;;15.10;99.90;;;;;;4984233;28;20050;-55
2023/06/14 04:22:03;;;;;;;8.98;3.20;;;15.10;99.90;;;;;;4967813;28;20050;-57
2023/06/14 04:24:31;;;;;;;8.18;3.65;;;15.00;99.90;;;;;;4988336;28;20108;-51
2023/06/14 04:27:01;;;;;;;5.60;2.95;;;15.00;99.90;;;;;;4988447;28;20042;-58
2023/06/14 04:29:29;;;;;;;6.82;3.40;;;15.00;99.90;;;;;;4987342;28;20046;-53
2023/06/14 04:31:58;;;;;;;9.98;3.58;;;14.90;99.90;;;;;;4970341;28;20060;-53
2023/06/14 04:34:29;;;;;;;6.53;3.63;;;14.80;99.90;;;;;;4987415;28;20081;-58
2023/06/14 04:36:56;;;;;;;6.35;3.50;;;14.80;99.90;;;;;;4986584;28;20056;-57
2023/06/14 04:39:22;;;;;;;6.43;3.50;;;14.90;99.90;;;;;;4986935;28;20387;-55
2023/06/14 04:41:51;;;;;;;7.88;3.85;;;14.90;99.90;;;;;;4986529;28;20046;-58
2023/06/14 04:44:18;;;;;;;6.10;3.72;;;15.00;99.90;;;;;;4985957;28;20054;-56
2023/06/14 04:46:47;;;;;;;7.93;3.55;;;15.10;99.90;;;;;;4987693;28;20050;-52
2023/06/14 04:49:16;;;;;;;7.75;3.88;;;15.10;99.90;;;;;;4987003;28;20054;-55
2023/06/14 04:51:43;;;;;;;7.30;3.65;;;15.10;99.90;;;;;;4986528;28;20054;-49
2023/06/14 04:54:14;;;;;;;6.53;3.63;;;15.30;99.90;;;;;;4986773;28;20066;-58
2023/06/14 04:56:44;;;;;;;5.75;3.55;;;16.00;99.90;;;;;;4986979;28;20472;-51
2023/06/14 04:59:14;;;;;;;6.10;3.63;;;16.20;99.90;;;;;;4986157;28;20046;-53
2023/06/14 05:01:40;;;;;;;5.18;3.08;;;16.50;99.90;;;;;;4987398;28;20051;-55
2023/06/14 05:04:06;;;;;;;7.53;3.53;;;16.50;99.90;;;;;;4987619;28;20121;-57
2023/06/14 05:06:31;;;;;;;5.85;3.50;;;16.60;99.90;;;;;;4969516;28;20128;-57
2023/06/14 05:08:57;;;;;;;5.25;3.25;;;16.70;99.90;;;;;;4987425;28;20052;-52
2023/06/14 05:11:26;;;;;;;7.43;3.45;;;16.70;99.90;;;;;;4987062;28;20073;-51
2023/06/14 05:13:52;;;;;;;6.45;3.30;;;16.80;99.80;;;;;;4986314;28;20464;-56
2023/06/14 05:16:19;;;;;;;10.75;3.70;;;17.00;99.50;;;;;;4987564;28;20050;-58
2023/06/14 05:18:47;;;;;;;5.32;3.30;;;17.20;99.10;;;;;;4987741;28;20405;-55
2023/06/14 05:21:13;;;;;;;6.43;3.42;;;17.30;98.80;;;;;;4986852;28;20052;-58
2023/06/14 05:23:38;;;;;;;9.02;3.55;;;17.50;98.30;;;;;;4968874;28;20038;-58
2023/06/14 05:26:04;;;;;;;6.82;3.67;;;17.70;97.80;;;;;;4986649;28;20039;-56
2023/06/14 05:28:30;;;;;;;6.90;3.63;;;18.00;97.00;;;;;;4986363;28;20053;-58
2023/06/14 05:30:56;;;;;;;6.57;3.22;;;18.20;96.50;;;;;;4986685;28;20046;-58
2023/06/14 05:33:22;;;;;;;6.65;3.15;;;18.50;96.20;;;;;;4986567;28;20092;-52
2023/06/14 05:35:47;;;;;;;5.60;3.25;;;18.80;95.50;;;;;;4986241;28;20038;-58
2023/06/14 05:38:13;;;;;;;5.10;3.20;;;19.00;95.00;;;;;;4986609;28;20394;-58
2023/06/14 05:40:38;;;;;;;6.88;3.38;;;19.10;94.70;;;;;;4986394;28;20046;-55
2023/06/14 05:43:04;;;;;;;8.57;3.63;;;19.30;94.40;;;;;;4985978;28;20047;-58
2023/06/14 05:45:30;;;;;;;5.93;2.95;;;19.50;94.20;;;;;;4986678;28;20125;-56
2023/06/14 05:47:55;;;;;;;6.78;3.03;;;19.80;93.70;;;;;;4986016;28;20062;-57
2023/06/14 05:50:21;;;;;;;6.60;3.33;;;20.30;93.20;;;;;;4969442;28;20523;-58
2023/06/14 05:52:46;;;;;;;8.10;3.30;;;20.40;92.70;;;;;;4986307;28;20061;-56
2023/06/14 05:55:12;;;;;;;5.88;3.22;;;20.80;92.30;;;;;;4986598;28;20050;-55
2023/06/14 05:57:38;;;;;;;6.05;3.15;;;21.30;91.70;;;;;;4984812;28;20755;-58
2023/06/14 06:00:38;;;;;;;6.70;3.22;;;21.60;91.10;;;;;;4986070;28;20042;-58
2023/06/14 06:03:00;;;;;;;7.32;3.10;;;21.70;91.00;;;;;;4982141;28;20054;-57
2023/06/14 06:05:26;;;;;;;5.50;3.03;;;22.10;90.70;;;;;;4985320;28;20054;-55
2023/06/14 06:07:52;;;;;;;5.80;3.10;;;22.40;90.30;;;;;;4986103;28;20050;-57
2023/06/14 06:10:17;;;;;;;6.78;3.20;;;22.30;90.10;;;;;;4985843;28;20045;-59
2023/06/14 06:12:43;;;;;;;13.13;3.50;;;22.30;90.20;;;;;;4985487;28;20130;-57
2023/06/14 06:15:12;;;;;;;5.50;2.97;;;22.30;90.10;;;;;;4986398;28;20062;-57
2023/06/14 06:17:38;;;;;;;5.47;2.75;;;22.40;90.00;;;;;;4985421;28;20537;-58
2023/06/14 06:20:08;;;;;;;6.13;3.00;;;22.60;89.80;;;;;;4986397;28;20126;-57
2023/06/14 06:22:34;;;;;;;5.20;3.05;;;22.80;89.30;;;;;;4986232;28;20038;-56
2023/06/14 06:25:00;;;;;;;12.32;3.22;;;23.00;89.10;;;;;;4984990;28;20093;-56
2023/06/14 06:27:25;;;;;;;5.97;2.75;;;23.00;88.80;;;;;;4967654;28;20042;-54
2023/06/14 06:29:51;;;;;;;5.78;2.90;;;23.00;88.80;;;;;;4985845;28;20050;-56
2023/06/14 06:32:17;;;;;;;6.43;3.20;;;23.00;88.00;;;;;;4985462;28;20468;-55
2023/06/14 06:34:43;;;;;;;6.75;3.28;;;22.90;88.20;;;;;;4984822;28;20046;-54
2023/06/14 06:37:09;;;;;;;3.80;2.58;;;23.20;87.40;;;;;;4968376;28;20601;-56
2023/06/14 06:39:34;;;;;;;4.43;2.83;;;23.00;87.30;;;;;;4985058;28;20038;-57
2023/06/14 06:42:00;;;;;;;5.72;2.72;;;23.20;87.00;;;;;;4984889;28;20505;-54
2023/06/14 06:44:26;;;;;;;6.25;2.55;;;23.40;86.70;;;;;;4985083;28;20044;-57
2023/06/14 06:46:51;;;;;;;6.03;3.05;;;23.50;86.20;;;;;;4983979;28;20038;-55
2023/06/14 06:49:17;;;;;;;7.85;2.67;;;23.30;85.80;;;;;;4967657;28;20066;-58
2023/06/14 06:51:43;;;;;;;4.50;2.80;;;23.10;85.90;;;;;;4984886;28;20034;-56
2023/06/14 06:54:09;;;;;;;7.47;3.10;;;23.00;86.40;;;;;;4985270;28;20048;-57
2023/06/14 06:56:35;;;;;;;4.93;2.58;;;23.10;86.50;;;;;;4985287;28;20049;-57
2023/06/14 06:59:01;;;;;;;5.25;2.90;;;23.30;85.90;;;;;;4983315;28;20041;-53
2023/06/14 07:01:28;;;;;;;5.55;3.05;;;23.30;86.00;;;;;;4985629;28;20038;-59
2023/06/14 07:03:55;;;;;;;5.72;2.78;;;23.40;86.10;;;;;;4985646;28;20165;-54
2023/06/14 07:06:21;;;;;;;10.20;2.60;;;23.40;85.80;;;;;;4984985;28;20061;-57
2023/06/14 07:08:48;;;;;;;5.57;2.72;;;23.30;85.50;;;;;;4984764;28;20491;-51
2023/06/14 07:11:14;;;;;;;5.03;2.50;;;23.30;85.80;;;;;;4985517;28;20493;-57
2023/06/14 07:13:40;;;;;;;7.35;2.50;;;23.50;85.60;;;;;;4983708;28;20034;-53
2023/06/14 07:16:06;;;;;;;3.78;2.33;;;23.70;85.50;;;;;;4982319;28;20397;-50
2023/06/14 07:18:32;;;;;;;5.45;2.25;;;23.80;85.20;;;;;;4961897;28;20121;-53
2023/06/14 07:20:57;;;;;;;7.35;2.47;;;24.00;85.10;;;;;;4982708;28;20046;-52
2023/06/14 07:23:23;;;;;;;5.50;2.40;;;24.00;84.80;;;;;;4982819;28;20227;-53
2023/06/14 07:25:49;;;;;;;3.92;2.30;;;24.10;84.20;;;;;;4984641;28;20425;-52
2023/06/14 07:28:15;;;;;;;6.35;2.20;;;24.00;83.90;;;;;;4985101;28;20038;-56
2023/06/14 07:30:41;;;;;;;8.00;2.20;;;23.90;83.90;;;;;;4985264;28;20133;-56
2023/06/14 07:33:08;;;;;;;3.90;2.17;;;23.90;84.00;;;;;;4984083;28;20042;-56
2023/06/14 07:35:34;;;;;;;4.65;2.40;;;23.90;84.00;;;;;;4967298;28;20043;-53
2023/06/14 07:37:59;;;;;;;8.45;2.88;;;23.80;84.00;;;;;;4985421;28;20034;-55
2023/06/14 07:40:25;;;;;;;4.65;1.98;;;23.70;84.30;;;;;;4984362;28;20047;-56
2023/06/14 07:42:51;;;;;;;7.78;2.38;;;23.60;84.70;;;;;;4983509;28;20093;-56
2023/06/14 07:45:16;;;;;;;6.05;2.05;;;23.50;83.00;;;;;;4983880;28;20294;-55
2023/06/14 07:47:42;;;;;;;3.80;2.28;;;23.30;83.90;;;;;;4982377;28;20046;-53
2023/06/14 07:50:08;;;;;;;5.68;2.42;;;23.30;84.20;;;;;;4981795;28;20145;-55
2023/06/14 07:52:34;;;;;;;3.25;2.08;;;23.50;84.00;;;;;;4982669;28;20453;-54
2023/06/14 07:55:01;;;;;;;7.60;2.60;;;23.60;83.30;;;;;;4981836;28;20129;-53
2023/06/14 07:57:27;;;;;;;5.43;2.17;;;23.70;83.50;;;;;;4964706;28;20065;-55
2023/06/14 07:59:52;;;;;;;3.08;2.03;;;23.80;83.70;;;;;;4985560;28;20101;-54
2023/06/14 08:02:18;;;;;;;5.10;2.35;;;23.70;84.00;;;;;;4985329;28;20030;-57
2023/06/14 08:04:43;;;;;;;4.40;2.08;;;23.90;84.50;;;;;;4984609;28;20385;-56
2023/06/14 08:07:09;;;;;;;4.57;2.05;;;24.00;84.00;;;;;;4985124;28;20061;-56
2023/06/14 08:09:39;;;;;;;7.78;2.28;;;23.90;83.40;;;;;;4986108;28;20133;-56
2023/06/14 08:12:09;;;;;;;6.82;2.42;;;23.70;83.60;;;;;;4985039;28;20493;-55
2023/06/14 08:14:35;;;;;;;4.97;2.38;;;23.70;83.90;;;;;;4985045;28;20049;-59
2023/06/14 08:17:01;;;;;;;5.35;2.00;;;23.80;84.30;;;;;;4985746;28;20054;-59
2023/06/14 08:19:26;;;;;;;7.20;2.20;;;23.90;84.10;;;;;;4985909;28;20042;-58
2023/06/14 08:21:54;;;;;;;8.15;2.65;;;24.00;84.20;;;;;;4984574;28;20129;-55
2023/06/14 08:24:24;;;;;;;4.20;2.30;;;24.00;84.10;;;;;;4985321;28;20050;-53
2023/06/14 08:26:50;;;;;;;4.85;2.55;;;24.10;84.00;;;;;;4985008;28;20218;-55
2023/06/14 08:29:15;;;;;;;7.25;2.65;;;24.10;84.00;;;;;;4985703;28;20042;-52
2023/06/14 08:31:41;;;;;;;5.95;2.42;;;24.10;84.20;;;;;;4985531;28;20163;-57
2023/06/14 08:34:07;;;;;;;3.83;2.40;;;24.10;84.50;;;;;;4967763;28;20046;-59
2023/06/14 08:36:32;;;;;;;8.77;2.67;;;24.20;84.60;;;;;;4968502;28;20046;-60
2023/06/14 08:38:58;;;;;;;6.72;2.22;;;24.30;84.00;;;;;;4984776;28;20046;-57
2023/06/14 08:41:27;;;;;;;4.22;2.15;;;24.40;84.00;;;;;;4985246;28;20483;-61
2023/06/14 08:43:52;;;;;;;3.13;2.05;;;24.40;83.50;;;;;;4967156;28;20057;-50
2023/06/14 08:46:19;;;;;;;7.28;2.50;;;24.30;83.40;;;;;;4985062;28;20129;-59
2023/06/14 08:48:49;;;;;;;5.85;2.13;;;24.40;83.30;;;;;;4985998;28;20035;-53
2023/06/14 08:51:18;;;;;;;4.32;2.22;;;24.50;82.50;;;;;;4967406;28;20050;-56
2023/06/14 08:53:45;;;;;;;5.95;2.17;;;24.70;83.10;;;;;;4984846;28;20385;-54
2023/06/14 08:56:13;;;;;;;3.53;2.20;;;24.70;81.90;;;;;;4985041;28;20100;-58
2023/06/14 08:58:44;;;;;;;5.07;2.20;;;24.60;81.80;;;;;;4984527;28;20053;-58
2023/06/14 09:01:16;;;;;;;6.88;2.15;;;24.70;80.80;;;;;;4984648;28;20137;-52
2023/06/14 09:03:42;;;;;;;4.10;2.10;;;24.70;81.90;;;;;;4984828;28;20053;-58
2023/06/14 09:06:13;;;;;;;4.32;2.15;;;24.80;81.80;;;;;;4984312;28;20702;-59
2023/06/14 09:08:43;;;;;;;6.93;2.50;;;24.90;82.20;;;;;;4983390;28;20053;-50
2023/06/14 09:11:12;;;;;;;5.72;2.20;;;25.00;82.00;;;;;;4984697;28;20061;-54
2023/06/14 09:13:37;;;;;;;8.15;2.10;;;25.00;81.10;;;;;;4983926;28;20034;-55
2023/06/14 09:16:03;;;;;;;4.18;2.03;;;25.00;81.10;;;;;;4984076;28;20108;-54
2023/06/14 09:18:49;;;;;;;5.88;2.10;;;25.00;81.70;;;;;;4984338;28;20054;-54
2023/06/14 09:21:17;;;;;;;4.32;1.90;;;25.20;81.80;;;;;;4984459;28;20290;-59
2023/06/14 09:23:44;;;;;;;3.97;2.22;;;25.30;81.70;;;;;;4983971;28;20892;-58
2023/06/14 09:26:22;;;;;;;10.05;2.38;;;25.50;81.50;;;;;;4984899;28;20050;-57
2023/06/14 09:28:50;;;;;;;3.25;1.73;;;25.50;80.20;;;;;;4982950;28;20042;-58
2023/06/14 09:31:20;;;;;;;5.22;2.05;;;25.50;80.80;;;;;;4984612;28;20056;-56
2023/06/14 09:33:51;;;;;;;4.07;2.13;;;25.60;80.20;;;;;;4966824;28;20516;-55
2023/06/14 09:36:24;;;;;;;6.05;2.20;;;25.70;80.60;;;;;;4983752;28;20095;-57
2023/06/14 09:38:57;;;;;;;7.57;2.08;;;25.80;80.50;;;;;;4984236;28;20042;-54
2023/06/14 09:41:36;;;;;;;3.63;2.08;;;25.90;78.80;;;;;;4966850;28;20065;-55
2023/06/14 09:44:10;;;;;;;4.15;2.13;;;25.90;79.80;;;;;;4984061;28;20042;-51
2023/06/14 09:46:37;;;;;;;3.42;1.88;;;25.90;80.00;;;;;;4984939;28;20046;-50
2023/06/14 09:49:03;;;;;;;7.35;2.53;;;26.00;79.80;;;;;;4983489;28;20132;-57
2023/06/14 09:51:32;;;;;;;3.60;1.80;;;26.10;79.80;;;;;;4983853;28;20082;-55
2023/06/14 09:54:06;;;;;;;4.28;2.28;;;26.30;80.30;;;;;;4983925;28;20393;-52
2023/06/14 09:56:38;;;;;;;5.50;2.60;;;26.40;79.10;;;;;;4983304;28;20046;-58
2023/06/14 09:59:08;;;;;;;4.80;1.80;;;26.50;78.00;;;;;;4984099;28;20378;-53
2023/06/14 10:01:35;;;;;;;5.38;2.20;;;26.40;78.40;;;;;;4966739;28;20437;-57
2023/06/14 10:04:08;;;;;;;6.00;2.05;;;26.40;79.40;;;;;;4983312;28;20555;-59
2023/06/14 10:06:39;;;;;;;5.13;1.60;;;26.50;79.70;;;;;;4984107;28;20054;-53
2023/06/14 10:09:08;;;;;;;7.13;2.10;;;26.50;78.80;;;;;;4983430;28;20294;-54
2023/06/14 10:11:35;;;;;;;4.13;2.00;;;26.50;78.40;;;;;;4965585;28;20053;-55
2023/06/14 10:14:03;;;;;;;4.63;2.10;;;26.50;79.20;;;;;;4983654;28;20085;-50
2023/06/14 10:16:53;;;;;;;4.85;1.90;;;26.70;79.30;;;;;;4983656;28;20438;-59
2023/06/14 10:19:25;;;;;;;7.93;2.00;;;26.80;78.10;;;;;;4983211;28;20661;-58
2023/06/14 10:21:55;;;;;;;7.32;1.60;;;26.90;78.10;;;;;;4982337;28;20102;-53
2023/06/14 10:24:41;;;;;;;6.30;1.30;;;27.00;77.50;;;;;;4983327;28;20077;-61
2023/06/14 10:27:11;;;;;;;6.45;1.73;;;26.90;78.00;;;;;;4983583;28;20097;-58
2023/06/14 10:29:57;;;;;;;3.13;1.60;;;27.00;77.60;;;;;;4983662;28;20042;-52
2023/06/14 10:32:25;;;;;;;2.97;1.67;;;27.10;77.50;;;;;;4983205;28;20062;-55
2023/06/14 10:35:20;;;;;;;4.47;1.42;;;27.10;76.30;;;;;;4983089;28;20046;-57
2023/06/14 10:37:46;;;;;;;2.33;1.60;;;27.10;76.50;;;;;;4978803;28;20054;-57
2023/06/14 10:40:30;;;;;;;4.05;1.90;;;26.90;75.90;;;;;;4965179;28;20339;-59
2023/06/14 10:42:56;;;;;;;3.80;1.60;;;26.90;77.20;;;;;;4982049;28;20112;-58
2023/06/14 10:45:21;;;;;;;6.03;1.33;;;27.00;77.30;;;;;;4982065;28;20436;-54
2023/06/14 10:47:52;;;;;;;4.68;1.73;;;27.10;76.30;;;;;;4982965;28;20069;-54
2023/06/14 10:50:27;;;;;;;4.22;1.55;;;27.20;76.50;;;;;;4982806;28;20081;-53
2023/06/14 10:52:53;;;;;;;4.75;1.85;;;27.10;76.80;;;;;;4981703;28;20058;-56
2023/06/14 10:55:21;;;;;;;3.83;1.80;;;27.20;76.90;;;;;;4982656;28;20043;-52
2023/06/14 10:57:58;;;;;;;5.25;1.50;;;27.30;76.40;;;;;;4983489;28;20038;-51
2023/06/14 11:00:26;;;;;;;2.92;1.40;;;27.50;77.20;;;;;;4985066;28;20125;-52
2023/06/14 11:02:54;;;;;;;2.88;1.50;;;27.70;75.60;;;;;;4967839;28;20057;-54
2023/06/14 11:05:27;;;;;;;3.63;1.60;;;27.50;75.10;;;;;;4985117;28;20065;-56
2023/06/14 11:08:24;;;;;;;4.40;1.57;;;27.60;77.00;;;;;;4985460;28;20047;-56
2023/06/14 11:10:51;;;;;;;2.60;1.45;;;27.60;76.90;;;;;;4967322;28;20061;-56
2023/06/14 11:13:17;;;;;;;5.10;1.60;;;27.70;76.60;;;;;;4984647;28;20374;-48
2023/06/14 11:15:47;;;;;;;6.32;1.80;;;27.50;76.10;;;;;;4985352;28;20073;-51
2023/06/14 11:18:13;;;;;;;5.68;1.70;;;27.00;74.50;;;;;;4984052;28;20141;-49
2023/06/14 11:20:40;;;;;;;5.22;1.60;;;26.90;77.20;;;;;;4985342;28;20049;-53
2023/06/14 11:23:05;;;;;;;2.95;1.83;;;27.00;77.50;;;;;;4984505;28;20077;-52
2023/06/14 11:25:31;;;;;;;2.78;1.67;;;27.20;76.90;;;;;;4984529;28;20108;-56
2023/06/14 11:27:57;;;;;;;3.03;1.63;;;27.10;77.00;;;;;;4982890;28;20057;-55
2023/06/14 11:30:25;;;;;;;4.63;1.60;;;27.10;76.60;;;;;;4984773;28;20057;-54
2023/06/14 11:32:52;;;;;;;2.78;1.30;;;27.10;76.10;;;;;;4988730;28;20042;-53
2023/06/14 11:35:19;;;;;;;5.32;1.52;;;27.20;77.00;;;;;;4987928;28;20332;-52
2023/06/14 11:37:45;;;;;;;5.05;1.30;;;27.30;77.50;;;;;;4973638;28;20142;-52
2023/06/14 11:40:12;;;;;;;5.28;1.60;;;27.50;75.50;;;;;;4991759;28;20125;-56
2023/06/14 11:42:40;;;;;;;3.38;1.38;;;27.40;75.40;;;;;;4989863;28;20038;-54
2023/06/14 11:45:10;;;;;;;5.95;1.60;;;27.10;75.10;;;;;;4991004;28;20050;-54
2023/06/14 11:47:37;;;;;;;4.13;1.60;;;27.10;75.60;;;;;;4990511;28;20215;-55
2023/06/14 11:50:05;;;;;;;3.78;1.80;;;27.10;74.10;;;;;;4972860;28;20100;-56
2023/06/14 11:52:31;;;;;;;3.15;1.55;;;27.20;74.90;;;;;;4981932;28;20045;-53
2023/06/14 11:54:58;;;;;;;2.55;1.52;;;27.30;75.80;;;;;;4970315;28;20039;-49
2023/06/14 11:57:24;;;;;;;3.45;1.50;;;27.50;76.10;;;;;;4990089;28;20053;-50
2023/06/14 11:59:50;;;;;;;3.08;1.60;;;27.60;75.10;;;;;;4989565;28;20041;-55
2023/06/14 12:02:16;;;;;;;3.47;1.30;;;27.70;76.10;;;;;;4990338;28;20030;-52
2023/06/14 12:04:48;;;;;;;4.68;1.95;;;27.80;76.40;;;;;;4991134;28;20049;-55
2023/06/14 12:07:19;;;;;;;4.75;1.75;;;27.80;74.10;;;;;;4990671;28;20397;-53
2023/06/14 12:09:54;;;;;;;8.05;1.73;;;27.80;75.00;;;;;;4990822;28;20464;-50
2023/06/14 12:12:25;;;;;;;3.53;1.65;;;28.00;75.40;;;;;;4990075;28;20069;-49
2023/06/14 12:14:51;;;;;;;7.63;1.65;;;28.00;75.50;;;;;;4991045;28;20043;-58
2023/06/14 12:17:18;;;;;;;2.63;1.88;;;28.00;75.80;;;;;;4991620;28;20053;-50
2023/06/14 12:19:45;;;;;;;5.13;1.63;;;27.90;74.90;;;;;;4991535;28;20047;-54
2023/06/14 12:22:12;;;;;;;3.47;1.83;;;27.90;74.50;;;;;;4973582;28;20516;-55
2023/06/14 12:24:37;;;;;;;5.55;1.80;;;28.00;75.40;;;;;;4973463;28;20034;-52
2023/06/14 12:27:04;;;;;;;4.63;1.90;;;27.90;75.50;;;;;;4990167;28;20042;-52
2023/06/14 12:29:30;;;;;;;4.93;1.95;;;27.60;73.70;;;;;;4990315;28;20125;-47
2023/06/14 12:31:56;;;;;;;3.70;2.05;;;27.40;73.20;;;;;;4972524;28;20109;-53
2023/06/14 12:34:27;;;;;;;5.32;1.73;;;27.40;72.40;;;;;;4989501;28;20031;-55
2023/06/14 12:36:53;;;;;;;7.30;2.10;;;27.50;73.50;;;;;;4990618;28;20054;-55
2023/06/14 12:39:19;;;;;;;4.85;1.50;;;27.30;73.90;;;;;;4990190;28;20042;-53
2023/06/14 12:41:45;;;;;;;4.78;1.77;;;27.40;75.30;;;;;;4990006;28;20563;-56
2023/06/14 12:44:11;;;;;;;4.20;1.83;;;27.50;74.90;;;;;;4988022;28;20046;-47
2023/06/14 12:46:39;;;;;;;4.65;1.65;;;27.50;75.10;;;;;;4970702;28;20046;-55